createdAt,value
2023-08-09T00:00:09.434Z,97901.70
2023-08-09T00:02:57.619Z,97903.46
2023-08-09T00:05:25.896Z,97904.39
2023-08-09T00:07:54.404Z,97904.30
2023-08-09T00:10:22.881Z,97901.41
2023-08-09T00:12:51.061Z,97896.98
2023-08-09T00:15:19.727Z,97898.35
2023-08-09T00:17:48.585Z,97905.34
2023-08-09T00:20:16.759Z,97907.25
2023-08-09T00:22:44.849Z,97903.20
2023-08-09T00:25:13.213Z,97902.65
2023-08-09T00:27:43.633Z,97900.39
2023-08-09T00:30:12.212Z,97895.77
2023-08-09T00:32:40.694Z,97895.16
2023-08-09T00:35:13.371Z,97893.98
2023-08-09T00:37:41.438Z,97895.23
2023-08-09T00:40:13.601Z,97896.81
2023-08-09T00:42:42.780Z,97896.65
2023-08-09T00:45:11.235Z,97899.10
2023-08-09T00:47:39.587Z,97899.09
2023-08-09T00:50:08.773Z,97903.64
2023-08-09T00:52:37.467Z,97904.16
2023-08-09T00:55:06.196Z,97905.23
2023-08-09T00:57:34.306Z,97903.66
2023-08-09T01:00:02.617Z,97903.67
2023-08-09T01:02:30.809Z,97902.46
2023-08-09T01:04:59.727Z,97900.95
2023-08-09T01:07:30.896Z,97903.29
2023-08-09T01:10:24.279Z,97910.14
2023-08-09T01:13:02.817Z,97912.11
2023-08-09T01:15:34.768Z,97912.89
2023-08-09T01:18:05.542Z,97911.04
2023-08-09T01:20:35.707Z,97912.21
2023-08-09T01:23:07.095Z,97909.72
2023-08-09T01:25:35.256Z,97907.41
2023-08-09T01:28:05.235Z,97902.48
2023-08-09T01:30:33.534Z,97899.98
2023-08-09T01:33:02.131Z,97904.48
2023-08-09T01:35:36.059Z,97901.81
2023-08-09T01:38:11.154Z,97900.85
2023-08-09T01:40:40.723Z,97907.70
2023-08-09T01:43:09.437Z,97907.02
2023-08-09T01:45:38.801Z,97909.84
2023-08-09T01:48:09.272Z,97910.55
2023-08-09T01:50:38.922Z,97911.92
2023-08-09T01:53:07.254Z,97910.88
2023-08-09T01:55:35.471Z,97908.59
2023-08-09T01:58:04.258Z,97907.53
2023-08-09T02:00:33.464Z,97910.16
2023-08-09T02:03:01.691Z,97915.41
2023-08-09T02:05:29.959Z,97912.95
2023-08-09T02:07:58.073Z,97915.74
2023-08-09T02:10:26.152Z,97915.73
2023-08-09T02:12:54.740Z,97916.45
2023-08-09T02:15:23.283Z,97916.13
2023-08-09T02:17:51.574Z,97916.88
2023-08-09T02:20:21.230Z,97916.55
2023-08-09T02:22:50.555Z,97918.34
2023-08-09T02:25:19.290Z,97917.54
2023-08-09T02:27:48.260Z,97918.14
2023-08-09T02:30:17.233Z,97920.50
2023-08-09T02:32:45.650Z,97923.74
2023-08-09T02:35:13.803Z,97925.76
2023-08-09T02:37:42.253Z,97925.50
2023-08-09T02:40:12.391Z,97926.81
2023-08-09T02:42:40.834Z,97927.44
2023-08-09T02:45:12.284Z,97929.23
2023-08-09T02:47:40.670Z,97929.45
2023-08-09T02:50:09.186Z,97929.13
2023-08-09T02:52:37.637Z,97934.92
2023-08-09T02:55:08.189Z,97944.88
2023-08-09T02:57:36.422Z,97944.86
2023-08-09T03:00:05.461Z,97942.92
2023-08-09T03:02:34.267Z,97943.09
2023-08-09T03:05:05.336Z,97941.67
2023-08-09T03:07:34.061Z,97944.30
2023-08-09T03:10:05.264Z,97944.64
2023-08-09T03:12:33.566Z,97945.55
2023-08-09T03:15:02.724Z,97940.14
2023-08-09T03:17:32.363Z,97947.31
2023-08-09T03:20:03.042Z,97953.96
2023-08-09T03:22:31.456Z,97957.65
2023-08-09T03:25:00.592Z,97954.50
2023-08-09T03:27:29.056Z,97952.39
2023-08-09T03:29:58.175Z,97950.10
2023-08-09T03:32:28.752Z,97952.90
2023-08-09T03:34:57.173Z,97956.43
2023-08-09T03:37:26.208Z,97954.54
2023-08-09T03:39:54.559Z,97955.95
2023-08-09T03:42:22.703Z,97963.68
2023-08-09T03:44:51.046Z,97963.70
2023-08-09T03:47:19.177Z,97969.48
2023-08-09T03:49:48.293Z,97972.98
2023-08-09T03:52:16.532Z,97980.86
2023-08-09T03:54:44.659Z,97987.48
2023-08-09T03:57:13.761Z,97986.89
2023-08-09T03:59:43.645Z,97987.31
2023-08-09T04:02:12.509Z,97989.64
2023-08-09T04:04:40.623Z,97992.33
2023-08-09T04:07:08.887Z,97987.64
2023-08-09T04:09:37.462Z,97988.17
2023-08-09T04:12:06.275Z,97991.68
2023-08-09T04:14:34.480Z,97992.58
2023-08-09T04:17:02.868Z,97990.27
2023-08-09T04:19:32.639Z,97989.01
2023-08-09T04:22:00.857Z,97989.72
2023-08-09T04:24:29.188Z,97989.02
2023-08-09T04:26:57.290Z,97995.21
2023-08-09T04:29:25.468Z,97996.98
2023-08-09T04:31:53.734Z,97992.98
2023-08-09T04:34:21.787Z,97990.06
2023-08-09T04:36:49.856Z,97988.77
2023-08-09T04:39:18.467Z,97986.58
2023-08-09T04:41:46.462Z,97988.00
2023-08-09T04:44:14.501Z,97989.16
2023-08-09T04:46:42.800Z,97988.37
2023-08-09T04:49:10.849Z,97990.98
2023-08-09T04:51:39.412Z,97991.00
2023-08-09T04:54:07.778Z,97990.33
2023-08-09T04:56:36.138Z,97989.31
2023-08-09T04:59:05.061Z,97991.96
2023-08-09T05:01:34.254Z,97991.20
2023-08-09T05:04:02.437Z,97988.71
2023-08-09T05:06:30.607Z,97987.27
2023-08-09T05:08:58.886Z,97986.36
2023-08-09T05:11:26.974Z,97987.90
2023-08-09T05:13:55.153Z,97990.48
2023-08-09T05:16:26.103Z,97992.02
2023-08-09T05:18:54.724Z,97990.06
2023-08-09T05:21:23.055Z,97988.56
2023-08-09T05:23:51.335Z,97985.80
2023-08-09T05:26:19.761Z,97984.90
2023-08-09T05:28:47.949Z,97989.73
2023-08-09T05:31:16.282Z,97994.31
2023-08-09T05:33:44.752Z,98000.30
2023-08-09T05:36:13.073Z,98005.26
2023-08-09T05:38:41.466Z,98011.59
2023-08-09T05:41:09.717Z,98006.55
2023-08-09T05:43:38.759Z,98008.20
2023-08-09T05:46:07.309Z,98005.83
2023-08-09T05:48:35.734Z,98010.92
2023-08-09T05:51:04.140Z,98012.27
2023-08-09T05:53:32.514Z,98008.49
2023-08-09T05:56:00.961Z,98005.88
2023-08-09T05:58:29.690Z,98004.42
2023-08-09T06:00:58.683Z,98005.39
2023-08-09T06:03:27.018Z,98005.56
2023-08-09T06:05:56.658Z,98008.37
2023-08-09T06:08:25.115Z,98004.66
2023-08-09T06:10:54.448Z,98007.70
2023-08-09T06:13:23.072Z,98003.86
2023-08-09T06:15:51.746Z,98007.17
2023-08-09T06:18:20.474Z,98009.03
2023-08-09T06:20:49.888Z,98010.40
2023-08-09T06:23:18.914Z,98003.16
2023-08-09T06:25:49.224Z,98002.49
2023-08-09T06:28:18.941Z,98000.83
2023-08-09T06:30:47.628Z,97998.11
2023-08-09T06:33:16.537Z,97997.25
2023-08-09T06:35:45.184Z,97999.96
2023-08-09T06:38:15.835Z,97998.05
2023-08-09T06:40:44.986Z,98000.58
2023-08-09T06:43:13.560Z,97999.13
2023-08-09T06:45:43.570Z,97995.23
2023-08-09T06:48:12.138Z,97993.20
2023-08-09T06:50:41.278Z,97998.35
2023-08-09T06:53:09.626Z,98000.46
2023-08-09T06:55:37.902Z,97999.42
2023-08-09T06:58:06.223Z,97996.44
2023-08-09T07:00:34.674Z,98000.33
2023-08-09T07:03:03.518Z,97993.45
2023-08-09T07:05:32.080Z,97990.15
2023-08-09T07:08:02.142Z,97991.48
2023-08-09T07:10:30.794Z,97989.39
2023-08-09T07:12:59.377Z,97986.38
2023-08-09T07:15:28.880Z,97983.72
2023-08-09T07:17:57.340Z,97982.71
2023-08-09T07:20:25.860Z,97986.42
2023-08-09T07:22:54.212Z,97984.15
2023-08-09T07:25:23.468Z,97981.08
2023-08-09T07:27:51.859Z,97977.62
2023-08-09T07:30:20.375Z,97972.95
2023-08-09T07:32:49.279Z,97970.58
2023-08-09T07:35:18.734Z,97973.73
2023-08-09T07:37:49.523Z,97971.27
2023-08-09T07:40:18.135Z,97968.38
2023-08-09T07:42:46.551Z,97968.79
2023-08-09T07:45:14.814Z,97963.80
2023-08-09T07:47:44.849Z,97958.51
2023-08-09T07:50:13.696Z,97959.48
2023-08-09T07:52:43.252Z,97957.26
2023-08-09T07:55:11.815Z,97957.36
2023-08-09T07:57:41.315Z,97951.50
2023-08-09T08:00:15.728Z,97951.31
2023-08-09T08:02:48.221Z,97953.98
2023-08-09T08:05:17.043Z,97952.87
2023-08-09T08:07:45.588Z,97951.46
2023-08-09T08:10:17.222Z,97945.18
2023-08-09T08:12:47.369Z,97942.33
2023-08-09T08:15:17.315Z,97938.14
2023-08-09T08:17:47.949Z,97935.55
2023-08-09T08:20:20.876Z,97930.08
2023-08-09T08:22:51.120Z,97928.91
2023-08-09T08:25:23.404Z,97926.57
2023-08-09T08:27:51.783Z,97926.11
2023-08-09T08:30:22.593Z,97929.95
2023-08-09T08:32:52.852Z,97926.52
2023-08-09T08:35:22.103Z,97920.70
2023-08-09T08:37:51.650Z,97922.95
2023-08-09T08:40:22.813Z,97920.73
2023-08-09T08:42:52.541Z,97912.52
2023-08-09T08:45:22.062Z,97912.49
2023-08-09T08:47:51.838Z,97907.98
2023-08-09T08:50:20.924Z,97907.82
2023-08-09T08:52:50.605Z,97908.08
2023-08-09T08:55:19.123Z,97900.66
2023-08-09T08:57:48.628Z,97896.86
2023-08-09T09:02:50.920Z,97893.41
2023-08-09T09:05:20.298Z,97887.14
2023-08-09T09:07:52.978Z,97886.33
2023-08-09T09:10:24.050Z,97886.39
2023-08-09T09:12:59.883Z,97882.88
2023-08-09T09:15:29.249Z,97881.95
2023-08-09T09:17:57.902Z,97878.23
2023-08-09T09:20:35.121Z,97875.17
2023-08-09T09:23:04.145Z,97874.98
2023-08-09T09:25:32.957Z,97870.52
2023-08-09T09:28:01.640Z,97870.94
2023-08-09T09:30:33.430Z,97870.30
2023-08-09T09:33:06.333Z,97870.38
2023-08-09T09:35:35.136Z,97867.27
2023-08-09T09:38:06.685Z,97863.27
2023-08-09T09:40:38.327Z,97855.25
2023-08-09T09:43:07.202Z,97849.84
2023-08-09T09:45:38.746Z,97846.55
2023-08-09T09:48:19.908Z,97849.14
2023-08-09T09:50:50.517Z,97844.85
2023-08-09T09:53:21.364Z,97843.05
2023-08-09T09:55:51.015Z,97840.92
2023-08-09T09:58:19.436Z,97837.18
2023-08-09T10:00:53.893Z,97837.56
2023-08-09T10:03:27.629Z,97834.55
2023-08-09T10:05:59.695Z,97827.63
2023-08-09T10:08:29.063Z,97826.80
2023-08-09T10:10:59.554Z,97822.77
2023-08-09T10:13:30.894Z,97826.22
2023-08-09T10:16:03.663Z,97827.29
2023-08-09T10:18:45.416Z,97822.15
2023-08-09T10:21:17.960Z,97824.64
2023-08-09T10:23:57.664Z,97819.11
2023-08-09T10:26:31.357Z,97814.23
2023-08-09T10:29:08.418Z,97809.67
2023-08-09T10:31:48.429Z,97804.34
2023-08-09T10:34:18.252Z,97806.21
2023-08-09T10:36:52.356Z,97799.88
2023-08-09T10:39:23.257Z,97799.82
2023-08-09T10:41:55.985Z,97790.94
2023-08-09T10:44:53.656Z,97790.49
2023-08-09T10:47:26.432Z,97794.02
2023-08-09T10:49:54.979Z,97786.83
2023-08-09T10:52:52.472Z,97784.05
2023-08-09T10:55:21.516Z,97778.65
2023-08-09T10:57:51.778Z,97772.73
2023-08-09T11:00:22.340Z,97773.79
2023-08-09T11:02:54.516Z,97773.30
2023-08-09T11:05:23.987Z,97770.32
2023-08-09T11:07:55.339Z,97768.52
2023-08-09T11:10:50.054Z,97765.05
2023-08-09T11:13:20.304Z,97760.79
2023-08-09T11:15:52.036Z,97762.63
2023-08-09T11:18:20.836Z,97764.98
2023-08-09T11:20:49.371Z,97758.35
2023-08-09T11:23:18.068Z,97751.36
2023-08-09T11:25:47.772Z,97750.39
2023-08-09T11:28:16.573Z,97751.39
2023-08-09T11:30:47.112Z,97748.56
2023-08-09T11:33:15.559Z,97745.74
2023-08-09T11:35:45.775Z,97743.12
2023-08-09T11:38:16.752Z,97746.36
2023-08-09T11:40:54.112Z,97744.96
2023-08-09T11:43:23.327Z,97743.65
2023-08-09T11:45:55.517Z,97737.94
2023-08-09T11:48:35.900Z,97736.13
2023-08-09T11:51:09.059Z,97732.61
2023-08-09T11:53:39.198Z,97724.84
2023-08-09T11:56:22.916Z,97723.60
2023-08-09T11:58:54.023Z,97724.61
2023-08-09T12:01:25.484Z,97732.19
2023-08-09T12:03:56.833Z,97723.61
2023-08-09T12:06:44.456Z,97718.44
2023-08-09T12:09:32.444Z,97716.44
2023-08-09T12:12:35.693Z,97717.80
2023-08-09T12:15:04.576Z,97713.80
2023-08-09T12:17:34.234Z,97711.07
2023-08-09T12:20:06.283Z,97709.50
2023-08-09T12:22:34.984Z,97711.35
2023-08-09T12:25:04.715Z,97714.67
2023-08-09T12:27:33.288Z,97712.80
2023-08-09T12:30:02.857Z,97706.56
2023-08-09T12:32:31.469Z,97705.70
2023-08-09T12:35:00.196Z,97706.30
2023-08-09T12:37:29.226Z,97708.41
2023-08-09T12:39:57.757Z,97707.39
2023-08-09T12:42:26.337Z,97705.40
2023-08-09T12:44:54.737Z,97701.23
2023-08-09T12:47:23.508Z,97700.55
2023-08-09T12:49:52.139Z,97696.60
2023-08-09T12:52:20.737Z,97698.21
2023-08-09T12:54:50.018Z,97704.07
2023-08-09T12:57:19.246Z,97703.05
2023-08-09T12:59:47.552Z,97704.84
2023-08-09T13:02:16.041Z,97706.46
2023-08-09T13:04:44.521Z,97708.08
2023-08-09T13:07:13.023Z,97707.31
2023-08-09T13:09:41.447Z,97701.50
2023-08-09T13:12:11.554Z,97698.29
2023-08-09T13:14:40.348Z,97698.09
2023-08-09T13:17:08.733Z,97695.34
2023-08-09T13:19:38.089Z,97695.46
2023-08-09T13:22:07.976Z,97695.52
2023-08-09T13:24:36.539Z,97693.36
2023-08-09T13:27:05.747Z,97691.09
2023-08-09T13:29:34.799Z,97693.14
2023-08-09T13:32:03.613Z,97695.03
2023-08-09T13:34:32.091Z,97696.86
2023-08-09T13:37:00.892Z,97692.67
2023-08-09T13:39:31.427Z,97691.40
2023-08-09T13:41:59.927Z,97687.23
2023-08-09T13:44:28.713Z,97689.41
2023-08-09T13:46:57.203Z,97685.67
2023-08-09T13:49:25.583Z,97683.75
2023-08-09T13:51:54.073Z,97684.23
2023-08-09T13:54:22.572Z,97681.68
2023-08-09T13:56:51.052Z,97679.47
2023-08-09T13:59:19.598Z,97683.05
2023-08-09T14:01:48.313Z,97680.27
2023-08-09T14:04:16.660Z,97680.95
2023-08-09T14:06:45.886Z,97681.82
2023-08-09T14:09:15.150Z,97678.27
2023-08-09T14:11:43.532Z,97678.99
2023-08-09T14:14:11.969Z,97677.55
2023-08-09T14:16:40.201Z,97676.28
2023-08-09T14:19:09.507Z,97679.02
2023-08-09T14:21:37.916Z,97680.36
2023-08-09T14:24:07.454Z,97682.74
2023-08-09T14:26:36.681Z,97680.54
2023-08-09T14:29:07.836Z,97675.42
2023-08-09T14:31:36.216Z,97675.18
2023-08-09T14:34:04.767Z,97673.59
2023-08-09T14:36:33.136Z,97674.67
2023-08-09T14:39:01.677Z,97673.55
2023-08-09T14:41:30.294Z,97670.55
2023-08-09T14:43:58.571Z,97673.90
2023-08-09T14:46:26.854Z,97672.64
2023-08-09T14:49:10.308Z,97675.13
2023-08-09T14:51:40.736Z,97678.11
2023-08-09T14:54:09.030Z,97682.65
2023-08-09T14:56:37.320Z,97683.38
2023-08-09T14:59:05.955Z,97683.83
2023-08-09T15:01:34.417Z,97684.10
2023-08-09T15:04:02.790Z,97681.73
2023-08-09T15:06:31.043Z,97680.11
2023-08-09T15:08:59.369Z,97682.38
2023-08-09T15:11:27.515Z,97683.02
2023-08-09T15:13:55.747Z,97684.77
2023-08-09T15:16:24.380Z,97685.55
2023-08-09T15:18:53.956Z,97685.89
2023-08-09T15:21:22.410Z,97682.76
2023-08-09T15:23:50.970Z,97681.49
2023-08-09T15:26:19.255Z,97682.25
2023-08-09T15:28:47.537Z,97679.48
2023-08-09T15:31:15.846Z,97678.02
2023-08-09T15:33:44.243Z,97676.26
2023-08-09T15:36:12.680Z,97677.75
2023-08-09T15:38:40.995Z,97680.85
2023-08-09T15:41:09.186Z,97676.48
2023-08-09T15:43:37.471Z,97673.05
2023-08-09T15:46:05.709Z,97677.90
2023-08-09T15:48:33.981Z,97676.73
2023-08-09T15:51:05.064Z,97671.84
2023-08-09T15:53:33.256Z,97671.62
2023-08-09T15:56:02.361Z,97669.76
2023-08-09T15:58:30.612Z,97674.33
2023-08-09T16:00:58.953Z,97676.62
2023-08-09T16:03:27.779Z,97679.30
2023-08-09T16:05:56.193Z,97679.83
2023-08-09T16:08:25.960Z,97678.81
2023-08-09T16:10:55.276Z,97678.33
2023-08-09T16:13:24.681Z,97678.63
2023-08-09T16:15:52.865Z,97677.41
2023-08-09T16:18:21.658Z,97673.61
2023-08-09T16:20:50.339Z,97672.49
2023-08-09T16:23:19.036Z,97676.00
2023-08-09T16:25:47.499Z,97673.81
2023-08-09T16:28:19.115Z,97674.52
2023-08-09T16:30:47.288Z,97680.30
2023-08-09T16:33:15.452Z,97678.02
2023-08-09T16:35:43.878Z,97678.61
2023-08-09T16:38:12.275Z,97673.64
2023-08-09T16:40:40.706Z,97670.70
2023-08-09T16:43:08.954Z,97669.39
2023-08-09T16:45:37.042Z,97671.38
2023-08-09T16:48:05.456Z,97674.23
2023-08-09T16:50:35.751Z,97675.95
2023-08-09T16:53:05.514Z,97674.56
2023-08-09T16:55:34.497Z,97677.13
2023-08-09T16:58:02.885Z,97673.55
2023-08-09T17:00:31.182Z,97673.82
2023-08-09T17:02:59.215Z,97676.70
2023-08-09T17:05:27.512Z,97679.13
2023-08-09T17:07:57.021Z,97681.39
2023-08-09T17:10:27.820Z,97681.35
2023-08-09T17:12:56.204Z,97681.38
2023-08-09T17:15:25.118Z,97684.59
2023-08-09T17:17:53.814Z,97687.77
2023-08-09T17:20:22.459Z,97688.04
2023-08-09T17:22:52.533Z,97690.68
2023-08-09T17:25:20.613Z,97691.20
2023-08-09T17:27:48.871Z,97693.47
2023-08-09T17:30:17.262Z,97688.60
2023-08-09T17:32:46.063Z,97688.75
2023-08-09T17:35:15.091Z,97687.06
2023-08-09T17:37:44.287Z,97684.13
2023-08-09T17:40:13.256Z,97684.47
2023-08-09T17:42:43.256Z,97681.30
2023-08-09T17:45:12.979Z,97679.35
2023-08-09T17:47:41.109Z,97676.52
2023-08-09T17:50:09.992Z,97674.61
2023-08-09T17:52:38.265Z,97673.36
2023-08-09T17:55:06.874Z,97676.31
2023-08-09T17:57:44.380Z,97681.41
2023-08-09T18:00:15.198Z,97684.38
2023-08-09T18:02:44.692Z,97690.54
2023-08-09T18:05:15.932Z,97694.33
2023-08-09T18:07:46.212Z,97696.69
2023-08-09T18:10:16.585Z,97698.13
2023-08-09T18:12:45.281Z,97704.36
2023-08-09T18:15:13.546Z,97704.94
2023-08-09T18:17:41.757Z,97702.74
2023-08-09T18:20:13.327Z,97704.18
2023-08-09T18:22:47.567Z,97709.88
2023-08-09T18:25:17.116Z,97707.13
2023-08-09T18:27:45.288Z,97708.23
2023-08-09T18:30:14.476Z,97710.33
2023-08-09T18:32:43.432Z,97707.34
2023-08-09T18:35:18.146Z,97708.75
2023-08-09T18:37:47.697Z,97710.17
2023-08-09T18:40:17.148Z,97712.66
2023-08-09T18:42:47.023Z,97715.84
2023-08-09T18:45:17.005Z,97718.21
2023-08-09T18:47:45.786Z,97723.91
2023-08-09T18:50:14.846Z,97728.56
2023-08-09T18:52:47.430Z,97728.81
2023-08-09T18:55:18.636Z,97729.90
2023-08-09T18:57:47.846Z,97729.24
2023-08-09T19:00:17.209Z,97727.48
2023-08-09T19:02:46.524Z,97726.64
2023-08-09T19:05:15.987Z,97727.51
2023-08-09T19:07:44.639Z,97725.75
2023-08-09T19:10:13.815Z,97728.02
2023-08-09T19:12:42.905Z,97727.77
2023-08-09T19:15:11.389Z,97726.13
2023-08-09T19:17:39.776Z,97725.32
2023-08-09T19:20:08.598Z,97723.45
2023-08-09T19:22:37.659Z,97723.50
2023-08-09T19:25:06.797Z,97724.46
2023-08-09T19:27:34.917Z,97727.80
2023-08-09T19:30:03.192Z,97732.83
2023-08-09T19:32:31.411Z,97735.32
2023-08-09T19:34:59.383Z,97735.45
2023-08-09T19:37:27.969Z,97738.73
2023-08-09T19:39:57.013Z,97739.02
2023-08-09T19:42:25.108Z,97741.27
2023-08-09T19:44:53.177Z,97747.23
2023-08-09T19:47:21.323Z,97746.63
2023-08-09T19:49:49.516Z,97747.60
2023-08-09T19:52:17.795Z,97749.75
2023-08-09T19:54:46.095Z,97751.15
2023-08-09T19:57:14.374Z,97755.29
2023-08-09T19:59:43.470Z,97756.77
2023-08-09T20:02:11.777Z,97766.19
2023-08-09T20:04:40.113Z,97766.77
2023-08-09T20:07:08.243Z,97766.46
2023-08-09T20:09:36.476Z,97768.65
2023-08-09T20:12:05.107Z,97768.35
2023-08-09T20:14:33.323Z,97768.58
2023-08-09T20:17:01.643Z,97768.38
2023-08-09T20:19:31.961Z,97768.89
2023-08-09T20:22:00.214Z,97768.11
2023-08-09T20:24:42.437Z,97771.60
2023-08-09T20:27:12.830Z,97770.69
2023-08-09T20:29:41.537Z,97769.92
2023-08-09T20:32:10.214Z,97770.17
2023-08-09T20:34:38.501Z,97771.47
2023-08-09T20:37:06.807Z,97773.20
2023-08-09T20:39:36.257Z,97771.58
2023-08-09T20:42:04.541Z,97769.61
2023-08-09T20:44:36.698Z,97770.45
2023-08-09T20:47:07.079Z,97775.00
2023-08-09T20:49:35.894Z,97776.48
2023-08-09T20:52:05.450Z,97777.06
2023-08-09T20:54:33.767Z,97779.47
2023-08-09T20:57:02.098Z,97778.19
2023-08-09T20:59:31.770Z,97776.77
2023-08-09T21:02:00.674Z,97779.23
2023-08-09T21:04:28.937Z,97780.66
2023-08-09T21:06:57.160Z,97780.89
2023-08-09T21:09:25.415Z,97779.56
2023-08-09T21:11:53.459Z,97780.07
2023-08-09T21:14:24.797Z,97776.87
2023-08-09T21:16:52.996Z,97778.98
2023-08-09T21:19:21.464Z,97781.00
2023-08-09T21:21:49.836Z,97781.02
2023-08-09T21:26:51.843Z,97780.54
2023-08-09T21:29:24.190Z,97780.22
2023-08-09T21:31:52.536Z,97779.95
2023-08-09T21:34:20.792Z,97778.29
2023-08-09T21:36:48.984Z,97773.61
2023-08-09T21:39:17.040Z,97773.13
2023-08-09T21:41:45.411Z,97773.10
2023-08-09T21:44:13.497Z,97769.55
2023-08-09T21:46:41.636Z,97764.73
2023-08-09T21:49:09.664Z,97766.27
2023-08-09T21:51:37.743Z,97770.05
2023-08-09T21:54:06.538Z,97771.90
2023-08-09T21:56:34.839Z,97769.66
2023-08-09T21:59:04.538Z,97770.77
2023-08-09T22:01:32.776Z,97772.63
2023-08-09T22:04:01.266Z,97773.60
2023-08-09T22:06:29.381Z,97772.17
2023-08-09T22:08:57.492Z,97776.08
2023-08-09T22:11:25.558Z,97777.54
2023-08-09T22:13:53.775Z,97776.23
2023-08-09T22:16:25.390Z,97778.41
2023-08-09T22:18:54.011Z,97777.65
2023-08-09T22:21:22.071Z,97783.04
2023-08-09T22:23:51.053Z,97783.99
2023-08-09T22:26:21.364Z,97783.31
2023-08-09T22:28:50.132Z,97786.06
2023-08-09T22:31:18.115Z,97784.90
2023-08-09T22:33:46.368Z,97781.88
2023-08-09T22:36:14.435Z,97780.20
2023-08-09T22:38:42.600Z,97785.02
2023-08-09T22:41:10.984Z,97783.67
2023-08-09T22:43:39.161Z,97786.40
2023-08-09T22:46:07.482Z,97785.12
2023-08-09T22:48:35.846Z,97784.00
2023-08-09T22:51:05.889Z,97788.63
2023-08-09T22:53:34.109Z,97785.13
2023-08-09T22:56:02.210Z,97785.56
2023-08-09T22:58:30.807Z,97789.82
2023-08-09T23:01:01.583Z,97788.82
2023-08-09T23:03:30.468Z,97790.10
2023-08-09T23:05:58.715Z,97792.42
2023-08-09T23:08:26.798Z,97789.69
2023-08-09T23:10:55.642Z,97785.92
2023-08-09T23:13:27.224Z,97782.52
2023-08-09T23:15:56.266Z,97779.73
2023-08-09T23:18:24.870Z,97781.35
2023-08-09T23:20:53.787Z,97786.00
2023-08-09T23:23:22.142Z,97790.34
2023-08-09T23:25:50.418Z,97788.33
2023-08-09T23:28:18.775Z,97788.42
2023-08-09T23:30:47.111Z,97787.12
2023-08-09T23:33:15.459Z,97783.34
2023-08-09T23:35:43.709Z,97784.44
2023-08-09T23:38:11.983Z,97782.34
2023-08-09T23:40:40.160Z,97782.13
2023-08-09T23:43:08.747Z,97781.06
2023-08-09T23:45:37.258Z,97778.70
2023-08-09T23:48:06.246Z,97778.30
2023-08-09T23:50:34.854Z,97778.50
2023-08-09T23:53:05.472Z,97777.02
2023-08-09T23:55:33.618Z,97775.14
2023-08-09T23:58:01.595Z,97775.58
